Time;durP1;ratioP1;P1;durP2;ratioP2;P2;SDS_P1;SDS_P2;PMS_P1;PMS_P2;Temp;Humidity;BMP_temperature;BMP_pressure;BME280_temperature;BME280_humidity;BME280_pressure;Samples;Min_cycle;Max_cycle;Signal;HPM_P1;HPM_P2
2022/04/14 10:03:07;;;;;;;9.88;4.28;;;;;;;;;;4981532;23;20472;-70
2022/04/14 10:41:41;;;;;;;12.63;6.75;;;;;;;;;;4795691;23;20433;-87
2022/04/14 10:44:50;;;;;;;16.83;7.25;;;;;;;;;;4827137;29;20129;-88
2022/04/14 10:47:46;;;;;;;11.60;6.45;;;;;;;;;;4831063;29;20025;-89
2022/04/14 10:50:28;;;;;;;10.82;6.85;;;;;;;;;;4849162;29;20055;-87
2022/04/14 10:53:12;;;;;;;11.43;6.55;;;;;;;;;;4847045;29;20045;-87
2022/04/14 10:55:39;;;;;;;12.40;6.70;;;;;;;;;;4840330;29;20457;-85
2022/04/14 10:58:08;;;;;;;11.75;6.32;;;;;;;;;;4847443;29;20076;-86
2022/04/14 11:00:35;;;;;;;12.27;6.65;;;;;;;;;;4821072;29;20109;-86
2022/04/14 11:03:01;;;;;;;11.75;5.75;;;;;;;;;;4828072;29;20042;-85
2022/04/14 11:05:44;;;;;;;9.88;5.45;;;;;;;;;;4822524;29;20627;-86
2022/04/14 11:08:31;;;;;;;13.40;5.18;;;;;;;;;;4834875;29;20520;-85
2022/04/14 11:11:15;;;;;;;9.25;5.03;;;;;;;;;;4831216;29;20047;-87
2022/04/14 11:13:55;;;;;;;11.90;5.25;;;;;;;;;;4845741;29;20429;-86
2022/04/14 11:16:44;;;;;;;12.43;4.93;;;;;;;;;;4841526;29;22645;-86
2022/04/14 11:19:16;;;;;;;8.18;4.65;;;;;;;;;;4846305;29;20152;-85
2022/04/14 11:22:12;;;;;;;9.88;4.60;;;;;;;;;;4844180;29;20471;-84
2022/04/14 11:24:41;;;;;;;10.30;4.72;;;;;;;;;;4821681;29;20124;-87
2022/04/14 11:27:17;;;;;;;10.75;5.13;;;;;;;;;;4827969;29;20034;-86
2022/04/14 11:29:48;;;;;;;10.90;6.13;;;;;;;;;;4843836;29;20037;-85
2022/04/14 11:32:34;;;;;;;14.65;7.72;;;;;;;;;;4841039;29;20039;-85
2022/04/14 11:35:13;;;;;;;13.65;9.10;;;;;;;;;;4818135;29;20113;-86
2022/04/14 11:37:42;;;;;;;11.05;8.40;;;;;;;;;;4802641;29;20529;-85
2022/04/14 11:40:11;;;;;;;13.80;9.25;;;;;;;;;;4843671;29;20057;-86
2022/04/14 11:42:36;;;;;;;15.80;10.70;;;;;;;;;;4833357;29;20057;-86
2022/04/14 11:45:02;;;;;;;16.95;10.95;;;;;;;;;;4793892;29;20124;-86
2022/04/14 11:47:28;;;;;;;18.23;9.98;;;;;;;;;;4841539;29;20037;-86
2022/04/14 11:49:54;;;;;;;16.73;10.73;;;;;;;;;;4843212;29;20045;-87
2022/04/14 11:52:25;;;;;;;17.92;10.40;;;;;;;;;;4844136;29;20412;-87
2022/04/14 11:55:08;;;;;;;16.52;10.57;;;;;;;;;;4846870;29;20209;-86
2022/04/14 11:57:46;;;;;;;18.20;10.15;;;;;;;;;;4796728;29;20281;-86
2022/04/14 12:00:14;;;;;;;15.77;11.02;;;;;;;;;;4822947;29;20085;-85
2022/04/14 12:02:49;;;;;;;16.10;10.52;;;;;;;;;;4807046;29;20045;-87
2022/04/14 12:05:18;;;;;;;18.05;10.80;;;;;;;;;;4830012;29;20049;-85
2022/04/14 12:07:44;;;;;;;14.93;10.98;;;;;;;;;;4841068;29;20037;-85
2022/04/14 12:10:09;;;;;;;18.13;12.18;;;;;;;;;;4808698;29;20037;-86
2022/04/14 12:12:37;;;;;;;19.52;13.02;;;;;;;;;;4808080;29;20531;-85
2022/04/14 12:15:03;;;;;;;17.80;11.73;;;;;;;;;;4831644;29;20030;-86
2022/04/14 12:17:30;;;;;;;19.83;11.82;;;;;;;;;;4831136;29;20034;-87
2022/04/14 12:20:03;;;;;;;21.73;13.43;;;;;;;;;;4829885;29;20112;-85
2022/04/14 12:22:30;;;;;;;18.90;12.82;;;;;;;;;;4820429;29;20321;-87
2022/04/14 12:25:02;;;;;;;18.60;13.52;;;;;;;;;;4830567;29;20030;-87
2022/04/14 12:27:34;;;;;;;17.00;13.30;;;;;;;;;;4841093;29;20651;-85
2022/04/14 12:30:05;;;;;;;19.15;13.95;;;;;;;;;;4839654;29;20145;-87
2022/04/14 12:32:32;;;;;;;19.80;14.20;;;;;;;;;;4840785;29;20053;-88
2022/04/14 12:34:58;;;;;;;20.90;15.20;;;;;;;;;;4828057;29;20029;-86
2022/04/14 12:37:32;;;;;;;22.42;15.02;;;;;;;;;;4827728;29;20033;-88
2022/04/14 12:39:59;;;;;;;23.73;15.50;;;;;;;;;;4828638;29;20056;-89
2022/04/14 12:42:33;;;;;;;21.88;15.75;;;;;;;;;;4817523;29;20045;-94
2022/04/14 12:45:05;;;;;;;22.75;16.55;;;;;;;;;;4838977;29;20120;-88
2022/04/14 12:47:41;;;;;;;20.52;15.88;;;;;;;;;;4823775;29;20029;-89
2022/04/14 12:50:10;;;;;;;21.88;16.20;;;;;;;;;;4829909;29;20124;-86
2022/04/14 12:52:35;;;;;;;19.90;16.30;;;;;;;;;;4829003;29;20035;-86
2022/04/14 12:55:01;;;;;;;23.23;16.67;;;;;;;;;;4839740;29;20033;-88
2022/04/14 12:57:28;;;;;;;24.85;18.27;;;;;;;;;;4840802;29;20029;-87
2022/04/14 13:00:03;;;;;;;23.23;16.55;;;;;;;;;;4828659;29;20312;-87
2022/04/14 13:02:29;;;;;;;21.55;15.73;;;;;;;;;;4830346;29;20040;-86
2022/04/14 13:05:22;;;;;;;22.17;16.92;;;;;;;;;;4845976;29;20037;-86
2022/04/14 13:11:48;;;;;;;22.45;16.58;;;;;;;;;;4853367;29;20049;-85
2022/04/14 13:14:16;;;;;;;23.58;16.50;;;;;;;;;;4838442;29;20088;-87
2022/04/14 13:16:43;;;;;;;22.92;17.42;;;;;;;;;;4839877;29;20096;-84
2022/04/14 13:19:08;;;;;;;20.92;16.75;;;;;;;;;;4841521;29;20087;-85
2022/04/14 13:21:35;;;;;;;23.65;16.92;;;;;;;;;;4844156;29;20059;-84
2022/04/14 13:24:00;;;;;;;23.45;17.85;;;;;;;;;;4834642;29;20030;-85
2022/04/14 13:26:26;;;;;;;25.50;18.02;;;;;;;;;;4846505;29;20045;-84
2022/04/14 13:28:51;;;;;;;23.13;17.30;;;;;;;;;;4832334;29;20033;-86
2022/04/14 13:31:17;;;;;;;25.17;18.52;;;;;;;;;;4807578;29;20037;-84
2022/04/14 13:33:42;;;;;;;22.08;17.65;;;;;;;;;;4810592;29;20189;-86
2022/04/14 13:36:08;;;;;;;24.23;17.63;;;;;;;;;;4844518;29;20228;-85
2022/04/14 13:38:37;;;;;;;27.17;18.25;;;;;;;;;;4829000;29;20048;-87
2022/04/14 13:41:02;;;;;;;24.15;18.75;;;;;;;;;;4806830;29;20136;-85
2022/04/14 13:43:30;;;;;;;24.85;18.00;;;;;;;;;;4842859;29;20096;-86
2022/04/14 13:45:58;;;;;;;24.58;18.38;;;;;;;;;;4844716;29;20036;-85
2022/04/14 13:48:24;;;;;;;23.83;18.10;;;;;;;;;;4806522;29;20106;-85
2022/04/14 13:50:49;;;;;;;25.98;19.13;;;;;;;;;;4818834;29;20620;-87
2022/04/14 13:53:16;;;;;;;24.77;18.98;;;;;;;;;;4825667;29;20983;-86
2022/04/14 13:55:47;;;;;;;27.33;19.08;;;;;;;;;;4841540;29;20580;-84
2022/04/14 13:58:13;;;;;;;;;;;;;;;;;;4815393;29;20561;-84
2022/04/14 14:00:40;;;;;;;23.75;18.02;;;;;;;;;;4842686;29;19920;-84
2022/04/14 14:03:08;;;;;;;24.05;18.65;;;;;;;;;;4839116;29;20962;-85
2022/04/14 14:05:34;;;;;;;26.60;19.02;;;;;;;;;;4844744;29;20030;-85
2022/04/14 14:07:59;;;;;;;25.73;19.15;;;;;;;;;;4834055;29;20041;-83
2022/04/14 14:11:03;;;;;;;27.83;19.20;;;;;;;;;;4835168;29;20037;-85
2022/04/14 14:13:39;;;;;;;27.30;19.45;;;;;;;;;;4815843;29;20436;-84
2022/04/14 14:16:21;;;;;;;25.77;18.83;;;;;;;;;;4813984;29;20038;-84
2022/04/14 14:18:53;;;;;;;29.13;19.88;;;;;;;;;;4827203;29;20071;-85
2022/04/14 14:21:18;;;;;;;26.20;19.60;;;;;;;;;;4818163;29;20049;-86
2022/04/14 14:23:46;;;;;;;26.30;19.65;;;;;;;;;;4844405;29;20061;-84
2022/04/14 14:26:14;;;;;;;25.98;19.30;;;;;;;;;;4805986;29;20373;-86
2022/04/14 14:28:41;;;;;;;25.83;18.95;;;;;;;;;;4816506;29;20685;-86
2022/04/14 14:31:08;;;;;;;27.33;19.63;;;;;;;;;;4831264;29;20032;-84
2022/04/14 14:33:33;;;;;;;23.55;18.13;;;;;;;;;;4827127;29;20040;-84
2022/04/14 14:36:04;;;;;;;25.13;17.75;;;;;;;;;;4818126;29;20270;-85
2022/04/14 14:38:35;;;;;;;23.77;18.05;;;;;;;;;;4834817;29;20089;-86
2022/04/14 14:41:02;;;;;;;24.33;17.33;;;;;;;;;;4830779;29;20273;-86
2022/04/14 14:43:32;;;;;;;24.30;17.60;;;;;;;;;;4832677;29;20537;-86
2022/04/14 14:46:09;;;;;;;24.80;18.13;;;;;;;;;;4838341;29;20044;-87
2022/04/14 14:48:46;;;;;;;26.05;17.48;;;;;;;;;;4853952;29;20050;-87
2022/04/14 14:51:52;;;;;;;24.55;17.25;;;;;;;;;;4826469;29;20140;-84
2022/04/14 14:54:17;;;;;;;22.80;17.35;;;;;;;;;;4817373;29;20166;-86
2022/04/14 14:56:43;;;;;;;26.48;17.90;;;;;;;;;;4816748;29;20030;-86
2022/04/14 14:59:15;;;;;;;24.88;17.38;;;;;;;;;;4798341;29;20037;-86
2022/04/14 15:01:45;;;;;;;25.42;18.52;;;;;;;;;;4809960;29;20041;-89
2022/04/14 15:04:13;;;;;;;26.23;18.02;;;;;;;;;;4826811;29;20379;-90
2022/04/14 15:06:40;;;;;;;26.10;18.55;;;;;;;;;;4837915;29;20045;-86
2022/04/14 15:09:26;;;;;;;26.20;18.52;;;;;;;;;;4816443;29;20045;-89
2022/04/14 15:11:53;;;;;;;24.15;18.13;;;;;;;;;;4798046;29;20161;-88
2022/04/14 15:14:19;;;;;;;27.33;18.60;;;;;;;;;;4811621;29;20514;-89
2022/04/14 15:17:06;;;;;;;26.88;17.48;;;;;;;;;;4815248;29;20172;-89
2022/04/14 15:19:51;;;;;;;24.05;16.75;;;;;;;;;;4819381;29;20233;-89
2022/04/14 15:22:22;;;;;;;26.05;16.67;;;;;;;;;;4824427;29;20509;-91
2022/04/14 15:24:57;;;;;;;23.42;17.05;;;;;;;;;;4825689;29;20617;-89
2022/04/14 15:27:25;;;;;;;22.15;15.73;;;;;;;;;;4811593;29;20833;-90
2022/04/14 15:30:07;;;;;;;24.90;17.05;;;;;;;;;;4799046;29;20093;-89
2022/04/14 15:32:49;;;;;;;19.83;15.63;;;;;;;;;;4808536;29;20026;-88
2022/04/14 15:35:18;;;;;;;23.35;16.83;;;;;;;;;;4806705;29;20045;-88
2022/04/14 15:38:07;;;;;;;;;;;;;;;;;;;;;
2022/04/14 15:40:39;;;;;;;24.77;16.45;;;;;;;;;;4835454;29;20064;-86
2022/04/14 15:43:07;;;;;;;;;;;;;;;;;;4806992;29;22208;-87
2022/04/14 15:45:40;;;;;;;22.83;15.02;;;;;;;;;;4817751;29;19916;-86
2022/04/14 15:48:09;;;;;;;20.85;15.15;;;;;;;;;;4803329;29;20045;-86
2022/04/14 15:50:48;;;;;;;;;;;;;;;;;;;;;
2022/04/14 15:53:31;;;;;;;23.33;15.57;;;;;;;;;;4813967;29;20050;-87
2022/04/14 15:56:09;;;;;;;21.90;15.40;;;;;;;;;;4796289;29;20596;-88
2022/04/14 15:58:47;;;;;;;;;;;;;;;;;;;;;
2022/04/14 16:01:13;;;;;;;22.00;16.25;;;;;;;;;;4804108;29;20041;-87
2022/04/14 16:03:58;;;;;;;29.42;17.50;;;;;;;;;;4825864;29;20038;-87
2022/04/14 16:06:43;;;;;;;25.23;17.30;;;;;;;;;;4815124;29;20111;-86
2022/04/14 16:12:02;;;;;;;25.98;17.42;;;;;;;;;;4806032;29;20049;-87
2022/04/14 16:12:48;;;;;;;26.85;18.95;;;;;;;;;;4812698;29;20038;-88
2022/04/14 16:15:23;;;;;;;27.08;18.08;;;;;;;;;;4816008;29;20038;-88
2022/04/14 16:18:22;;;;;;;23.95;17.90;;;;;;;;;;4798332;29;20952;-87
2022/04/14 16:20:54;;;;;;;26.00;18.30;;;;;;;;;;4785666;29;20626;-88
2022/04/14 16:23:37;;;;;;;27.55;18.65;;;;;;;;;;4808320;29;20050;-87
2022/04/14 16:26:13;;;;;;;26.88;19.45;;;;;;;;;;4795223;29;20662;-87
2022/04/14 16:28:54;;;;;;;27.08;19.65;;;;;;;;;;4806704;29;20470;-87
2022/04/14 16:31:36;;;;;;;26.42;19.02;;;;;;;;;;4799430;29;21188;-88
2022/04/14 16:34:07;;;;;;;27.75;19.83;;;;;;;;;;4803517;29;20046;-87
2022/04/14 16:36:41;;;;;;;27.10;20.38;;;;;;;;;;4803456;29;21021;-87
2022/04/14 16:39:25;;;;;;;30.48;21.92;;;;;;;;;;4804732;29;20137;-87
2022/04/14 16:45:35;;;;;;;;;;;;;;;;;;;;;
2022/04/14 16:48:05;;;;;;;31.65;21.20;;;;;;;;;;4847175;29;20053;-89
2022/04/14 16:51:19;;;;;;;31.90;21.02;;;;;;;;;;4810102;29;20082;-90
2022/04/14 16:54:03;;;;;;;30.80;22.40;;;;;;;;;;4811712;29;20431;-90
2022/04/14 16:56:36;;;;;;;;;;;;;;;;;;4791817;29;20198;-88
2022/04/14 16:59:22;;;;;;;30.85;21.60;;;;;;;;;;4786144;29;19920;-86
2022/04/14 17:01:47;;;;;;;33.92;22.95;;;;;;;;;;4787462;29;20113;-87
2022/04/14 17:04:52;;;;;;;33.55;22.13;;;;;;;;;;4792057;29;20043;-89
2022/04/14 17:07:38;;;;;;;30.63;21.70;;;;;;;;;;4777499;29;20039;-88
2022/04/14 17:10:45;;;;;;;37.15;22.85;;;;;;;;;;4783265;29;20114;-87
2022/04/14 17:16:34;;;;;;;38.55;23.10;;;;;;;;;;4789876;29;20776;-87
2022/04/14 17:19:45;;;;;;;33.35;22.08;;;;;;;;;;4780861;29;20074;-87
2022/04/14 17:29:04;;;;;;;33.90;20.60;;;;;;;;;;4826489;29;20057;-87
2022/04/14 17:31:51;;;;;;;34.83;22.42;;;;;;;;;;4789195;29;20038;-87
2022/04/14 17:35:01;;;;;;;;;;;;;;;;;;;;;
2022/04/14 17:37:47;;;;;;;34.72;22.33;;;;;;;;;;4802771;29;20546;-88
2022/04/14 17:43:37;;;;;;;35.65;22.52;;;;;;;;;;4805747;29;20439;-87
2022/04/14 17:46:16;;;;;;;33.08;21.40;;;;;;;;;;4776109;29;20045;-85
2022/04/14 17:52:41;;;;;;;37.28;22.73;;;;;;;;;;4793499;29;20284;-87
2022/04/14 17:55:44;;;;;;;36.90;22.58;;;;;;;;;;4775307;29;20498;-86
2022/04/14 17:58:32;;;;;;;37.60;22.42;;;;;;;;;;4777152;29;20130;-86
2022/04/14 18:03:58;;;;;;;32.35;21.23;;;;;;;;;;4757266;29;20126;-87
2022/04/14 18:06:46;;;;;;;38.75;22.00;;;;;;;;;;4758369;29;20201;-86
2022/04/14 18:09:24;;;;;;;;;;;;;;;;;;;;;
2022/04/14 18:12:11;;;;;;;42.80;22.77;;;;;;;;;;4752154;30;20538;-86
2022/04/14 18:14:56;;;;;;;;;;;;;;;;;;;;;
2022/04/14 18:17:37;;;;;;;39.92;21.42;;;;;;;;;;4765675;30;20043;-86
2022/04/14 18:24:02;;;;;;;43.70;22.92;;;;;;;;;;4788356;29;20545;-86
2022/04/14 18:27:13;;;;;;;;;;;;;;;;;;;;;
2022/04/14 18:30:02;;;;;;;40.35;21.58;;;;;;;;;;4781411;29;20099;-87
2022/04/14 18:32:40;;;;;;;36.50;22.08;;;;;;;;;;4773751;29;20027;-86
2022/04/14 18:35:25;;;;;;;41.65;22.35;;;;;;;;;;4811685;29;20053;-87
2022/04/14 18:38:13;;;;;;;35.65;20.17;;;;;;;;;;4821392;29;20042;-86
2022/04/14 18:41:16;;;;;;;38.20;20.45;;;;;;;;;;4791188;29;20151;-88
2022/04/14 18:44:09;;;;;;;37.33;21.15;;;;;;;;;;4781534;29;20117;-88
2022/04/14 18:53:34;;;;;;;45.20;23.87;;;;;;;;;;4811355;29;20118;-87
2022/04/14 18:56:29;;;;;;;45.63;24.80;;;;;;;;;;4791573;29;20027;-87
2022/04/14 19:03:03;;;;;;;45.25;25.35;;;;;;;;;;4744876;30;20072;-85
2022/04/14 19:06:31;;;;;;;43.75;26.02;;;;;;;;;;4780320;29;20030;-87
2022/04/14 19:09:13;;;;;;;47.45;26.42;;;;;;;;;;4797876;29;20048;-87
2022/04/14 19:12:21;;;;;;;48.45;26.67;;;;;;;;;;4800536;29;20044;-87
2022/04/14 19:21:37;;;;;;;55.35;29.35;;;;;;;;;;4788678;29;20093;-87
2022/04/14 19:24:22;;;;;;;47.28;26.67;;;;;;;;;;4803199;29;20045;-88
2022/04/14 19:27:07;;;;;;;51.55;28.77;;;;;;;;;;4779733;29;20130;-86
2022/04/14 19:29:47;;;;;;;49.95;28.05;;;;;;;;;;4758568;29;20118;-87
2022/04/14 19:35:40;;;;;;;54.00;27.48;;;;;;;;;;4726004;30;20044;-87
2022/04/14 19:38:10;;;;;;;56.13;29.03;;;;;;;;;;4699419;30;20195;-87
2022/04/14 19:41:00;;;;;;;46.78;28.10;;;;;;;;;;4728060;30;20462;-87
2022/04/14 19:44:13;;;;;;;55.95;30.55;;;;;;;;;;4721447;30;20040;-86
2022/04/14 19:46:57;;;;;;;;;;;;;;;;;;;;;
2022/04/14 19:49:46;;;;;;;;;;;;;;;;;;;;;
2022/04/14 20:23:29;;;;;;;60.88;32.00;;;;;;;;;;4660229;30;20113;-88
2022/04/14 20:26:31;;;;;;;;;;;;;;;;;;;;;
2022/04/14 20:29:29;;;;;;;65.20;34.63;;;;;;;;;;4680304;30;20053;-87
2022/04/14 20:35:46;;;;;;;;;;;;;;;;;;;;;
2022/04/14 20:38:46;;;;;;;66.07;33.15;;;;;;;;;;4790802;29;20049;-88
2022/04/14 20:41:39;;;;;;;62.70;34.08;;;;;;;;;;4799113;29;20599;-88
2022/04/14 20:47:54;;;;;;;75.53;34.45;;;;;;;;;;4791913;29;20428;-87
2022/04/14 20:50:28;;;;;;;68.63;33.85;;;;;;;;;;4785652;29;20098;-88
2022/04/14 20:59:17;;;;;;;67.47;34.75;;;;;;;;;;4774433;29;20465;-85
2022/04/14 21:02:12;;;;;;;63.50;34.42;;;;;;;;;;4760910;29;20108;-88
2022/04/14 21:04:59;;;;;;;62.13;32.40;;;;;;;;;;4761864;29;20508;-91
2022/04/14 21:10:43;;;;;;;60.22;31.83;;;;;;;;;;4767455;29;20039;-87
2022/04/14 21:14:06;;;;;;;49.15;26.27;;;;;;;;;;4795157;29;20067;-88
2022/04/14 21:20:27;;;;;;;57.08;38.85;;;;;;;;;;4778101;29;20040;-86
